sensor_id;sensor_type;location;lat;lon;timestamp;P1;durP1;ratioP1;P2;durP2;ratioP2
64469;SDS011;50854;48.538;14.352;2023-05-14T00:00:09;76.80;;;5.83;;
64469;SDS011;50854;48.538;14.352;2023-05-14T00:01:10;242.10;;;8.48;;
64469;SDS011;50854;48.538;14.352;2023-05-14T00:02:11;51.60;;;5.55;;
64469;SDS011;50854;48.538;14.352;2023-05-14T00:03:11;11.00;;;5.00;;
64469;SDS011;50854;48.538;14.352;2023-05-14T00:04:11;9.63;;;5.47;;
64469;SDS011;50854;48.538;14.352;2023-05-14T00:05:11;7.30;;;4.93;;
64469;SDS011;50854;48.538;14.352;2023-05-14T00:06:12;9.47;;;5.80;;
64469;SDS011;50854;48.538;14.352;2023-05-14T00:07:12;10.00;;;6.13;;
64469;SDS011;50854;48.538;14.352;2023-05-14T00:08:12;10.60;;;5.50;;
64469;SDS011;50854;48.538;14.352;2023-05-14T00:09:13;8.77;;;5.53;;
64469;SDS011;50854;48.538;14.352;2023-05-14T00:10:13;13.07;;;5.97;;
64469;SDS011;50854;48.538;14.352;2023-05-14T00:11:13;12.13;;;6.03;;
64469;SDS011;50854;48.538;14.352;2023-05-14T00:12:13;7.00;;;5.27;;
64469;SDS011;50854;48.538;14.352;2023-05-14T00:13:13;10.13;;;6.00;;
64469;SDS011;50854;48.538;14.352;2023-05-14T00:14:14;8.83;;;5.43;;
64469;SDS011;50854;48.538;14.352;2023-05-14T00:15:14;8.03;;;5.23;;
64469;SDS011;50854;48.538;14.352;2023-05-14T00:16:14;10.23;;;5.83;;
64469;SDS011;50854;48.538;14.352;2023-05-14T00:17:15;8.90;;;5.53;;
64469;SDS011;50854;48.538;14.352;2023-05-14T00:18:15;9.20;;;5.60;;
64469;SDS011;50854;48.538;14.352;2023-05-14T00:19:15;8.47;;;5.67;;
64469;SDS011;50854;48.538;14.352;2023-05-14T00:20:15;9.30;;;5.67;;
64469;SDS011;50854;48.538;14.352;2023-05-14T00:21:16;9.17;;;6.07;;
64469;SDS011;50854;48.538;14.352;2023-05-14T00:22:16;11.83;;;5.53;;
64469;SDS011;50854;48.538;14.352;2023-05-14T00:23:16;10.23;;;6.17;;
64469;SDS011;50854;48.538;14.352;2023-05-14T00:24:16;10.17;;;6.13;;
64469;SDS011;50854;48.538;14.352;2023-05-14T00:25:17;9.90;;;6.20;;
64469;SDS011;50854;48.538;14.352;2023-05-14T00:26:17;8.73;;;5.60;;
64469;SDS011;50854;48.538;14.352;2023-05-14T00:27:17;8.40;;;5.60;;
64469;SDS011;50854;48.538;14.352;2023-05-14T00:28:17;11.70;;;6.03;;
64469;SDS011;50854;48.538;14.352;2023-05-14T00:29:18;9.80;;;6.03;;
64469;SDS011;50854;48.538;14.352;2023-05-14T00:30:18;9.70;;;6.10;;
64469;SDS011;50854;48.538;14.352;2023-05-14T00:31:18;8.70;;;5.43;;
64469;SDS011;50854;48.538;14.352;2023-05-14T00:32:18;8.07;;;5.53;;
64469;SDS011;50854;48.538;14.352;2023-05-14T00:33:19;8.57;;;5.87;;
64469;SDS011;50854;48.538;14.352;2023-05-14T00:34:19;8.40;;;5.47;;
64469;SDS011;50854;48.538;14.352;2023-05-14T00:35:19;8.83;;;5.33;;
64469;SDS011;50854;48.538;14.352;2023-05-14T00:36:20;12.60;;;5.68;;
64469;SDS011;50854;48.538;14.352;2023-05-14T00:37:20;16.47;;;5.93;;
64469;SDS011;50854;48.538;14.352;2023-05-14T00:38:21;11.13;;;5.97;;
64469;SDS011;50854;48.538;14.352;2023-05-14T00:39:23;9.02;;;5.78;;
64469;SDS011;50854;48.538;14.352;2023-05-14T00:40:24;18.63;;;6.33;;
64469;SDS011;50854;48.538;14.352;2023-05-14T00:41:25;124.45;;;7.85;;
64469;SDS011;50854;48.538;14.352;2023-05-14T00:42:25;31.57;;;5.63;;
64469;SDS011;50854;48.538;14.352;2023-05-14T00:43:26;8.63;;;5.85;;
64469;SDS011;50854;48.538;14.352;2023-05-14T00:44:26;9.57;;;5.67;;
64469;SDS011;50854;48.538;14.352;2023-05-14T00:45:26;8.33;;;5.33;;
64469;SDS011;50854;48.538;14.352;2023-05-14T00:46:26;10.33;;;5.83;;
64469;SDS011;50854;48.538;14.352;2023-05-14T00:47:27;7.82;;;5.13;;
64469;SDS011;50854;48.538;14.352;2023-05-14T00:48:27;9.27;;;6.13;;
64469;SDS011;50854;48.538;14.352;2023-05-14T00:49:28;7.97;;;5.90;;
64469;SDS011;50854;48.538;14.352;2023-05-14T00:50:28;7.27;;;5.20;;
64469;SDS011;50854;48.538;14.352;2023-05-14T00:51:28;9.57;;;5.13;;
64469;SDS011;50854;48.538;14.352;2023-05-14T00:52:29;6.97;;;5.53;;
64469;SDS011;50854;48.538;14.352;2023-05-14T00:53:29;6.40;;;5.22;;
64469;SDS011;50854;48.538;14.352;2023-05-14T00:54:30;121.30;;;7.87;;
64469;SDS011;50854;48.538;14.352;2023-05-14T00:55:30;11.45;;;5.30;;
64469;SDS011;50854;48.538;14.352;2023-05-14T00:56:31;10.00;;;5.20;;
64469;SDS011;50854;48.538;14.352;2023-05-14T00:57:31;8.27;;;5.40;;
64469;SDS011;50854;48.538;14.352;2023-05-14T00:58:32;7.35;;;5.18;;
64469;SDS011;50854;48.538;14.352;2023-05-14T00:59:32;6.53;;;4.57;;
64469;SDS011;50854;48.538;14.352;2023-05-14T01:00:33;6.80;;;5.00;;
64469;SDS011;50854;48.538;14.352;2023-05-14T01:01:33;8.13;;;5.30;;
64469;SDS011;50854;48.538;14.352;2023-05-14T01:02:33;6.83;;;4.77;;
64469;SDS011;50854;48.538;14.352;2023-05-14T01:03:33;9.03;;;5.07;;
64469;SDS011;50854;48.538;14.352;2023-05-14T01:04:34;7.72;;;4.68;;
64469;SDS011;50854;48.538;14.352;2023-05-14T01:05:52;9.83;;;5.43;;
64469;SDS011;50854;48.538;14.352;2023-05-14T01:07:02;10.65;;;5.25;;
64469;SDS011;50854;48.538;14.352;2023-05-14T01:09:41;9.75;;;5.05;;
64469;SDS011;50854;48.538;14.352;2023-05-14T01:10:44;6.60;;;4.65;;
64469;SDS011;50854;48.538;14.352;2023-05-14T01:11:55;6.95;;;4.60;;
64469;SDS011;50854;48.538;14.352;2023-05-14T01:13:01;6.25;;;4.22;;
64469;SDS011;50854;48.538;14.352;2023-05-14T01:16:11;8.63;;;4.85;;
64469;SDS011;50854;48.538;14.352;2023-05-14T01:17:12;7.30;;;4.25;;
64469;SDS011;50854;48.538;14.352;2023-05-14T01:18:15;9.88;;;5.03;;
64469;SDS011;50854;48.538;14.352;2023-05-14T01:20:01;8.30;;;4.55;;
64469;SDS011;50854;48.538;14.352;2023-05-14T01:20:37;8.27;;;4.90;;
64469;SDS011;50854;48.538;14.352;2023-05-14T01:21:41;9.03;;;5.00;;
64469;SDS011;50854;48.538;14.352;2023-05-14T01:22:42;6.60;;;5.10;;
64469;SDS011;50854;48.538;14.352;2023-05-14T01:23:42;7.67;;;5.23;;
64469;SDS011;50854;48.538;14.352;2023-05-14T01:24:42;9.87;;;4.87;;
64469;SDS011;50854;48.538;14.352;2023-05-14T01:25:43;8.33;;;4.60;;
64469;SDS011;50854;48.538;14.352;2023-05-14T01:26:43;9.40;;;4.63;;
64469;SDS011;50854;48.538;14.352;2023-05-14T01:28:59;8.68;;;4.30;;
64469;SDS011;50854;48.538;14.352;2023-05-14T01:30:02;6.95;;;4.78;;
64469;SDS011;50854;48.538;14.352;2023-05-14T01:31:09;7.20;;;4.78;;
64469;SDS011;50854;48.538;14.352;2023-05-14T01:32:11;6.45;;;4.68;;
64469;SDS011;50854;48.538;14.352;2023-05-14T01:33:12;8.82;;;4.43;;
64469;SDS011;50854;48.538;14.352;2023-05-14T01:34:13;15.60;;;4.88;;
64469;SDS011;50854;48.538;14.352;2023-05-14T01:36:15;10.88;;;4.80;;
64469;SDS011;50854;48.538;14.352;2023-05-14T01:37:15;267.03;;;8.93;;
64469;SDS011;50854;48.538;14.352;2023-05-14T01:38:16;154.13;;;6.82;;
64469;SDS011;50854;48.538;14.352;2023-05-14T01:40:17;34.75;;;4.68;;
64469;SDS011;50854;48.538;14.352;2023-05-14T01:41:18;6.07;;;4.47;;
64469;SDS011;50854;48.538;14.352;2023-05-14T01:42:18;7.67;;;4.67;;
64469;SDS011;50854;48.538;14.352;2023-05-14T01:43:18;7.78;;;5.15;;
64469;SDS011;50854;48.538;14.352;2023-05-14T01:45:30;7.00;;;4.63;;
64469;SDS011;50854;48.538;14.352;2023-05-14T01:46:30;6.72;;;5.28;;
64469;SDS011;50854;48.538;14.352;2023-05-14T01:47:31;9.73;;;5.05;;
64469;SDS011;50854;48.538;14.352;2023-05-14T01:48:31;7.60;;;4.90;;
64469;SDS011;50854;48.538;14.352;2023-05-14T01:49:32;6.53;;;4.57;;
64469;SDS011;50854;48.538;14.352;2023-05-14T01:50:32;10.93;;;4.90;;
64469;SDS011;50854;48.538;14.352;2023-05-14T01:51:32;6.70;;;4.40;;
64469;SDS011;50854;48.538;14.352;2023-05-14T01:52:33;65.67;;;4.80;;
64469;SDS011;50854;48.538;14.352;2023-05-14T01:53:33;100.97;;;5.23;;
64469;SDS011;50854;48.538;14.352;2023-05-14T01:54:33;15.27;;;4.37;;
64469;SDS011;50854;48.538;14.352;2023-05-14T01:55:34;8.13;;;4.43;;
64469;SDS011;50854;48.538;14.352;2023-05-14T01:56:34;21.53;;;4.70;;
64469;SDS011;50854;48.538;14.352;2023-05-14T01:57:35;16.30;;;4.83;;
64469;SDS011;50854;48.538;14.352;2023-05-14T01:58:35;9.18;;;4.70;;
64469;SDS011;50854;48.538;14.352;2023-05-14T01:59:35;13.53;;;4.87;;
64469;SDS011;50854;48.538;14.352;2023-05-14T02:00:36;21.97;;;4.80;;
64469;SDS011;50854;48.538;14.352;2023-05-14T02:01:37;174.98;;;7.35;;
64469;SDS011;50854;48.538;14.352;2023-05-14T02:02:37;175.83;;;7.00;;
64469;SDS011;50854;48.538;14.352;2023-05-14T02:03:37;79.40;;;5.73;;
64469;SDS011;50854;48.538;14.352;2023-05-14T02:04:37;69.27;;;6.00;;
64469;SDS011;50854;48.538;14.352;2023-05-14T02:05:38;14.23;;;4.90;;
64469;SDS011;50854;48.538;14.352;2023-05-14T02:06:38;8.93;;;4.67;;
64469;SDS011;50854;48.538;14.352;2023-05-14T02:07:38;19.20;;;4.70;;
64469;SDS011;50854;48.538;14.352;2023-05-14T02:08:38;43.57;;;4.83;;
64469;SDS011;50854;48.538;14.352;2023-05-14T02:09:39;9.10;;;4.70;;
64469;SDS011;50854;48.538;14.352;2023-05-14T02:10:40;26.08;;;5.07;;
64469;SDS011;50854;48.538;14.352;2023-05-14T02:11:40;8.90;;;4.47;;
64469;SDS011;50854;48.538;14.352;2023-05-14T02:12:40;6.90;;;4.33;;
64469;SDS011;50854;48.538;14.352;2023-05-14T02:13:40;16.53;;;4.17;;
64469;SDS011;50854;48.538;14.352;2023-05-14T02:14:41;82.03;;;5.00;;
64469;SDS011;50854;48.538;14.352;2023-05-14T02:15:41;23.77;;;3.83;;
64469;SDS011;50854;48.538;14.352;2023-05-14T02:16:41;4.97;;;3.87;;
64469;SDS011;50854;48.538;14.352;2023-05-14T02:17:41;5.40;;;4.20;;
64469;SDS011;50854;48.538;14.352;2023-05-14T02:18:42;5.73;;;4.30;;
64469;SDS011;50854;48.538;14.352;2023-05-14T02:19:42;19.70;;;4.20;;
64469;SDS011;50854;48.538;14.352;2023-05-14T02:20:43;82.32;;;5.15;;
64469;SDS011;50854;48.538;14.352;2023-05-14T02:21:43;77.47;;;3.97;;
64469;SDS011;50854;48.538;14.352;2023-05-14T02:22:43;13.83;;;3.80;;
64469;SDS011;50854;48.538;14.352;2023-05-14T02:23:45;11.85;;;3.90;;
64469;SDS011;50854;48.538;14.352;2023-05-14T02:24:47;10.80;;;3.83;;
64469;SDS011;50854;48.538;14.352;2023-05-14T02:25:48;41.72;;;4.00;;
64469;SDS011;50854;48.538;14.352;2023-05-14T02:26:48;10.93;;;3.70;;
64469;SDS011;50854;48.538;14.352;2023-05-14T02:27:49;17.63;;;3.87;;
64469;SDS011;50854;48.538;14.352;2023-05-14T02:28:49;5.97;;;3.87;;
64469;SDS011;50854;48.538;14.352;2023-05-14T02:29:49;12.07;;;4.27;;
64469;SDS011;50854;48.538;14.352;2023-05-14T02:30:50;5.83;;;3.87;;
64469;SDS011;50854;48.538;14.352;2023-05-14T02:31:50;17.93;;;4.27;;
64469;SDS011;50854;48.538;14.352;2023-05-14T02:32:50;6.23;;;4.50;;
64469;SDS011;50854;48.538;14.352;2023-05-14T02:33:50;5.30;;;3.90;;
64469;SDS011;50854;48.538;14.352;2023-05-14T02:34:51;12.27;;;4.30;;
64469;SDS011;50854;48.538;14.352;2023-05-14T02:35:51;7.07;;;4.67;;
64469;SDS011;50854;48.538;14.352;2023-05-14T02:36:51;13.73;;;4.27;;
64469;SDS011;50854;48.538;14.352;2023-05-14T02:37:52;11.50;;;4.53;;
64469;SDS011;50854;48.538;14.352;2023-05-14T02:38:53;12.50;;;3.85;;
64469;SDS011;50854;48.538;14.352;2023-05-14T02:39:53;14.17;;;4.27;;
64469;SDS011;50854;48.538;14.352;2023-05-14T02:40:53;15.97;;;3.77;;
64469;SDS011;50854;48.538;14.352;2023-05-14T02:41:53;5.33;;;3.70;;
64469;SDS011;50854;48.538;14.352;2023-05-14T02:42:54;10.00;;;4.00;;
64469;SDS011;50854;48.538;14.352;2023-05-14T02:43:54;7.50;;;4.30;;
64469;SDS011;50854;48.538;14.352;2023-05-14T02:44:54;9.63;;;4.03;;
64469;SDS011;50854;48.538;14.352;2023-05-14T02:45:55;63.90;;;4.93;;
64469;SDS011;50854;48.538;14.352;2023-05-14T02:46:55;37.80;;;4.60;;
64469;SDS011;50854;48.538;14.352;2023-05-14T02:47:55;8.10;;;4.10;;
64469;SDS011;50854;48.538;14.352;2023-05-14T02:48:55;6.00;;;3.97;;
64469;SDS011;50854;48.538;14.352;2023-05-14T02:49:56;5.50;;;3.77;;
64469;SDS011;50854;48.538;14.352;2023-05-14T02:50:56;39.07;;;4.87;;
64469;SDS011;50854;48.538;14.352;2023-05-14T02:51:56;86.83;;;4.93;;
64469;SDS011;50854;48.538;14.352;2023-05-14T02:52:57;45.15;;;4.32;;
64469;SDS011;50854;48.538;14.352;2023-05-14T02:53:57;29.53;;;3.90;;
64469;SDS011;50854;48.538;14.352;2023-05-14T02:54:57;192.37;;;6.23;;
64469;SDS011;50854;48.538;14.352;2023-05-14T02:55:58;158.83;;;5.77;;
64469;SDS011;50854;48.538;14.352;2023-05-14T02:56:58;106.40;;;4.80;;
64469;SDS011;50854;48.538;14.352;2023-05-14T02:57:58;228.73;;;6.87;;
64469;SDS011;50854;48.538;14.352;2023-05-14T02:58:59;229.63;;;6.63;;
64469;SDS011;50854;48.538;14.352;2023-05-14T02:59:59;87.40;;;4.97;;
64469;SDS011;50854;48.538;14.352;2023-05-14T03:00:59;164.93;;;5.47;;
64469;SDS011;50854;48.538;14.352;2023-05-14T03:01:59;113.30;;;5.07;;
64469;SDS011;50854;48.538;14.352;2023-05-14T03:03:00;161.77;;;5.97;;
64469;SDS011;50854;48.538;14.352;2023-05-14T03:04:00;140.97;;;5.60;;
64469;SDS011;50854;48.538;14.352;2023-05-14T03:05:00;104.37;;;5.73;;
64469;SDS011;50854;48.538;14.352;2023-05-14T03:06:01;79.57;;;4.93;;
64469;SDS011;50854;48.538;14.352;2023-05-14T03:07:01;18.73;;;4.13;;
64469;SDS011;50854;48.538;14.352;2023-05-14T03:08:01;34.03;;;4.60;;
64469;SDS011;50854;48.538;14.352;2023-05-14T03:09:02;110.77;;;4.83;;
64469;SDS011;50854;48.538;14.352;2023-05-14T03:10:02;62.50;;;4.57;;
64469;SDS011;50854;48.538;14.352;2023-05-14T03:11:03;91.13;;;3.55;;
64469;SDS011;50854;48.538;14.352;2023-05-14T03:12:03;177.60;;;5.77;;
64469;SDS011;50854;48.538;14.352;2023-05-14T03:13:03;100.40;;;4.77;;
64469;SDS011;50854;48.538;14.352;2023-05-14T03:14:04;80.00;;;4.20;;
64469;SDS011;50854;48.538;14.352;2023-05-14T03:15:04;16.87;;;3.57;;
64469;SDS011;50854;48.538;14.352;2023-05-14T03:16:05;5.80;;;3.60;;
64469;SDS011;50854;48.538;14.352;2023-05-14T03:17:05;27.57;;;4.00;;
64469;SDS011;50854;48.538;14.352;2023-05-14T03:18:05;24.17;;;4.60;;
64469;SDS011;50854;48.538;14.352;2023-05-14T03:19:06;18.70;;;3.97;;
64469;SDS011;50854;48.538;14.352;2023-05-14T03:20:06;5.40;;;3.97;;
64469;SDS011;50854;48.538;14.352;2023-05-14T03:21:06;9.63;;;4.20;;
64469;SDS011;50854;48.538;14.352;2023-05-14T03:22:08;5.43;;;3.63;;
64469;SDS011;50854;48.538;14.352;2023-05-14T03:23:08;5.57;;;3.60;;
64469;SDS011;50854;48.538;14.352;2023-05-14T03:24:08;5.63;;;4.13;;
64469;SDS011;50854;48.538;14.352;2023-05-14T03:25:08;5.83;;;3.70;;
64469;SDS011;50854;48.538;14.352;2023-05-14T03:26:09;5.47;;;3.90;;
64469;SDS011;50854;48.538;14.352;2023-05-14T03:27:09;4.90;;;3.57;;
64469;SDS011;50854;48.538;14.352;2023-05-14T03:28:09;6.40;;;3.77;;
64469;SDS011;50854;48.538;14.352;2023-05-14T03:29:09;10.07;;;3.80;;
64469;SDS011;50854;48.538;14.352;2023-05-14T03:30:10;5.17;;;3.67;;
64469;SDS011;50854;48.538;14.352;2023-05-14T03:31:10;5.43;;;3.63;;
64469;SDS011;50854;48.538;14.352;2023-05-14T03:32:11;12.17;;;4.07;;
64469;SDS011;50854;48.538;14.352;2023-05-14T03:33:11;19.90;;;4.53;;
64469;SDS011;50854;48.538;14.352;2023-05-14T03:34:11;17.03;;;3.97;;
64469;SDS011;50854;48.538;14.352;2023-05-14T03:35:12;11.27;;;4.22;;
64469;SDS011;50854;48.538;14.352;2023-05-14T03:36:12;63.93;;;4.03;;
64469;SDS011;50854;48.538;14.352;2023-05-14T03:37:12;194.90;;;5.30;;
64469;SDS011;50854;48.538;14.352;2023-05-14T03:38:12;138.90;;;5.27;;
64469;SDS011;50854;48.538;14.352;2023-05-14T03:39:13;63.23;;;4.70;;
64469;SDS011;50854;48.538;14.352;2023-05-14T03:40:18;31.00;;;3.97;;
64469;SDS011;50854;48.538;14.352;2023-05-14T03:42:20;13.45;;;3.60;;
64469;SDS011;50854;48.538;14.352;2023-05-14T03:43:21;32.13;;;4.20;;
64469;SDS011;50854;48.538;14.352;2023-05-14T03:44:21;28.37;;;4.53;;
64469;SDS011;50854;48.538;14.352;2023-05-14T03:45:21;35.53;;;4.13;;
64469;SDS011;50854;48.538;14.352;2023-05-14T03:46:21;16.07;;;3.90;;
64469;SDS011;50854;48.538;14.352;2023-05-14T03:47:22;17.33;;;3.90;;
64469;SDS011;50854;48.538;14.352;2023-05-14T03:48:22;12.73;;;3.90;;
64469;SDS011;50854;48.538;14.352;2023-05-14T03:49:22;7.80;;;4.27;;
64469;SDS011;50854;48.538;14.352;2023-05-14T03:50:22;6.77;;;4.57;;
64469;SDS011;50854;48.538;14.352;2023-05-14T03:51:24;10.35;;;3.83;;
64469;SDS011;50854;48.538;14.352;2023-05-14T03:52:24;9.30;;;3.90;;
64469;SDS011;50854;48.538;14.352;2023-05-14T03:53:24;55.40;;;4.53;;
64469;SDS011;50854;48.538;14.352;2023-05-14T03:54:25;16.53;;;4.03;;
64469;SDS011;50854;48.538;14.352;2023-05-14T03:55:25;15.27;;;4.20;;
64469;SDS011;50854;48.538;14.352;2023-05-14T03:56:25;14.33;;;5.47;;
64469;SDS011;50854;48.538;14.352;2023-05-14T03:57:26;48.80;;;4.90;;
64469;SDS011;50854;48.538;14.352;2023-05-14T03:58:26;81.40;;;4.83;;
64469;SDS011;50854;48.538;14.352;2023-05-14T03:59:26;40.90;;;4.37;;
64469;SDS011;50854;48.538;14.352;2023-05-14T04:00:27;9.43;;;3.50;;
64469;SDS011;50854;48.538;14.352;2023-05-14T04:01:28;19.73;;;4.55;;
64469;SDS011;50854;48.538;14.352;2023-05-14T04:02:28;7.47;;;3.63;;
64469;SDS011;50854;48.538;14.352;2023-05-14T04:03:28;14.07;;;4.13;;
64469;SDS011;50854;48.538;14.352;2023-05-14T04:04:28;17.80;;;3.80;;
64469;SDS011;50854;48.538;14.352;2023-05-14T04:05:29;28.53;;;4.20;;
64469;SDS011;50854;48.538;14.352;2023-05-14T04:06:29;14.30;;;4.23;;
64469;SDS011;50854;48.538;14.352;2023-05-14T04:07:30;38.67;;;4.22;;
64469;SDS011;50854;48.538;14.352;2023-05-14T04:08:30;10.47;;;4.13;;
64469;SDS011;50854;48.538;14.352;2023-05-14T04:09:30;4.93;;;4.00;;
64469;SDS011;50854;48.538;14.352;2023-05-14T04:10:30;5.07;;;3.60;;
64469;SDS011;50854;48.538;14.352;2023-05-14T04:11:31;6.23;;;3.87;;
64469;SDS011;50854;48.538;14.352;2023-05-14T04:12:31;13.20;;;3.70;;
64469;SDS011;50854;48.538;14.352;2023-05-14T04:13:31;8.60;;;3.77;;
64469;SDS011;50854;48.538;14.352;2023-05-14T04:14:31;4.63;;;3.50;;
64469;SDS011;50854;48.538;14.352;2023-05-14T04:15:32;6.60;;;3.80;;
64469;SDS011;50854;48.538;14.352;2023-05-14T04:16:32;12.43;;;3.63;;
64469;SDS011;50854;48.538;14.352;2023-05-14T04:17:32;20.17;;;4.03;;
64469;SDS011;50854;48.538;14.352;2023-05-14T04:18:32;4.93;;;3.47;;
64469;SDS011;50854;48.538;14.352;2023-05-14T04:19:36;6.90;;;3.63;;
64469;SDS011;50854;48.538;14.352;2023-05-14T04:20:36;5.10;;;3.60;;
64469;SDS011;50854;48.538;14.352;2023-05-14T04:21:36;7.90;;;3.70;;
64469;SDS011;50854;48.538;14.352;2023-05-14T04:22:36;8.37;;;3.97;;
64469;SDS011;50854;48.538;14.352;2023-05-14T04:23:37;7.30;;;4.03;;
64469;SDS011;50854;48.538;14.352;2023-05-14T04:24:37;5.67;;;3.73;;
64469;SDS011;50854;48.538;14.352;2023-05-14T04:25:37;7.93;;;3.67;;
64469;SDS011;50854;48.538;14.352;2023-05-14T04:26:37;4.63;;;3.60;;
64469;SDS011;50854;48.538;14.352;2023-05-14T04:27:38;5.30;;;3.63;;
64469;SDS011;50854;48.538;14.352;2023-05-14T04:28:38;4.78;;;3.60;;
64469;SDS011;50854;48.538;14.352;2023-05-14T04:29:39;5.82;;;3.55;;
64469;SDS011;50854;48.538;14.352;2023-05-14T04:30:39;6.17;;;3.97;;
64469;SDS011;50854;48.538;14.352;2023-05-14T04:31:40;6.47;;;4.00;;
64469;SDS011;50854;48.538;14.352;2023-05-14T04:32:41;5.35;;;3.83;;
64469;SDS011;50854;48.538;14.352;2023-05-14T04:33:41;7.47;;;3.95;;
64469;SDS011;50854;48.538;14.352;2023-05-14T04:34:41;6.37;;;3.67;;
64469;SDS011;50854;48.538;14.352;2023-05-14T04:35:42;5.17;;;3.20;;
64469;SDS011;50854;48.538;14.352;2023-05-14T04:36:42;4.68;;;3.70;;
64469;SDS011;50854;48.538;14.352;2023-05-14T04:37:43;6.10;;;4.17;;
64469;SDS011;50854;48.538;14.352;2023-05-14T04:38:43;4.27;;;3.70;;
64469;SDS011;50854;48.538;14.352;2023-05-14T04:39:43;5.13;;;3.93;;
64469;SDS011;50854;48.538;14.352;2023-05-14T04:40:44;5.50;;;3.73;;
64469;SDS011;50854;48.538;14.352;2023-05-14T04:41:44;7.13;;;4.40;;
64469;SDS011;50854;48.538;14.352;2023-05-14T04:42:44;5.13;;;3.87;;
64469;SDS011;50854;48.538;14.352;2023-05-14T04:43:45;5.23;;;3.80;;
64469;SDS011;50854;48.538;14.352;2023-05-14T04:44:46;5.57;;;4.50;;
64469;SDS011;50854;48.538;14.352;2023-05-14T04:45:46;5.53;;;4.17;;
64469;SDS011;50854;48.538;14.352;2023-05-14T04:46:46;5.53;;;4.00;;
64469;SDS011;50854;48.538;14.352;2023-05-14T04:47:46;6.13;;;4.40;;
64469;SDS011;50854;48.538;14.352;2023-05-14T04:48:47;9.63;;;4.30;;
64469;SDS011;50854;48.538;14.352;2023-05-14T04:49:47;4.90;;;3.87;;
64469;SDS011;50854;48.538;14.352;2023-05-14T04:50:47;5.00;;;3.83;;
64469;SDS011;50854;48.538;14.352;2023-05-14T04:51:47;4.23;;;3.60;;
64469;SDS011;50854;48.538;14.352;2023-05-14T04:52:48;10.18;;;4.07;;
64469;SDS011;50854;48.538;14.352;2023-05-14T04:53:48;6.47;;;4.03;;
64469;SDS011;50854;48.538;14.352;2023-05-14T04:54:49;8.17;;;3.83;;
64469;SDS011;50854;48.538;14.352;2023-05-14T04:55:49;5.20;;;4.07;;
64469;SDS011;50854;48.538;14.352;2023-05-14T04:56:49;7.80;;;4.50;;
64469;SDS011;50854;48.538;14.352;2023-05-14T04:57:50;6.32;;;4.30;;
64469;SDS011;50854;48.538;14.352;2023-05-14T04:58:50;5.83;;;4.77;;
64469;SDS011;50854;48.538;14.352;2023-05-14T04:59:50;7.50;;;4.67;;
64469;SDS011;50854;48.538;14.352;2023-05-14T05:00:50;5.87;;;4.47;;
64469;SDS011;50854;48.538;14.352;2023-05-14T05:01:50;7.57;;;4.90;;
64469;SDS011;50854;48.538;14.352;2023-05-14T05:02:51;5.77;;;5.00;;
64469;SDS011;50854;48.538;14.352;2023-05-14T05:03:51;6.67;;;4.57;;
64469;SDS011;50854;48.538;14.352;2023-05-14T05:04:51;6.83;;;4.33;;
64469;SDS011;50854;48.538;14.352;2023-05-14T05:05:52;7.50;;;4.60;;
64469;SDS011;50854;48.538;14.352;2023-05-14T05:06:52;6.03;;;4.50;;
64469;SDS011;50854;48.538;14.352;2023-05-14T05:07:52;6.87;;;4.53;;
64469;SDS011;50854;48.538;14.352;2023-05-14T05:08:53;6.67;;;4.60;;
64469;SDS011;50854;48.538;14.352;2023-05-14T05:10:54;5.75;;;4.22;;
64469;SDS011;50854;48.538;14.352;2023-05-14T05:11:54;7.53;;;4.33;;
64469;SDS011;50854;48.538;14.352;2023-05-14T05:12:55;6.23;;;4.10;;
64469;SDS011;50854;48.538;14.352;2023-05-14T05:13:55;6.97;;;4.50;;
64469;SDS011;50854;48.538;14.352;2023-05-14T05:14:55;6.37;;;4.33;;
64469;SDS011;50854;48.538;14.352;2023-05-14T05:15:56;4.85;;;3.78;;
64469;SDS011;50854;48.538;14.352;2023-05-14T05:16:56;8.37;;;3.80;;
64469;SDS011;50854;48.538;14.352;2023-05-14T05:17:57;6.27;;;4.20;;
64469;SDS011;50854;48.538;14.352;2023-05-14T05:18:57;5.77;;;4.27;;
64469;SDS011;50854;48.538;14.352;2023-05-14T05:19:57;5.17;;;4.07;;
64469;SDS011;50854;48.538;14.352;2023-05-14T05:20:57;13.47;;;3.60;;
64469;SDS011;50854;48.538;14.352;2023-05-14T05:21:58;7.57;;;4.13;;
64469;SDS011;50854;48.538;14.352;2023-05-14T05:22:58;5.67;;;4.07;;
64469;SDS011;50854;48.538;14.352;2023-05-14T05:23:58;5.43;;;3.40;;
64469;SDS011;50854;48.538;14.352;2023-05-14T05:24:58;4.43;;;3.87;;
64469;SDS011;50854;48.538;14.352;2023-05-14T05:25:59;5.40;;;4.00;;
64469;SDS011;50854;48.538;14.352;2023-05-14T05:26:59;5.80;;;4.17;;
64469;SDS011;50854;48.538;14.352;2023-05-14T05:27:59;5.37;;;4.13;;
64469;SDS011;50854;48.538;14.352;2023-05-14T05:29:00;4.72;;;3.90;;
64469;SDS011;50854;48.538;14.352;2023-05-14T05:30:00;7.37;;;4.37;;
64469;SDS011;50854;48.538;14.352;2023-05-14T05:31:01;5.60;;;4.07;;
64469;SDS011;50854;48.538;14.352;2023-05-14T05:32:01;5.40;;;3.83;;
64469;SDS011;50854;48.538;14.352;2023-05-14T05:33:01;7.27;;;3.70;;
64469;SDS011;50854;48.538;14.352;2023-05-14T05:34:01;5.77;;;4.30;;
64469;SDS011;50854;48.538;14.352;2023-05-14T05:35:02;6.03;;;4.20;;
64469;SDS011;50854;48.538;14.352;2023-05-14T05:36:02;5.40;;;4.30;;
64469;SDS011;50854;48.538;14.352;2023-05-14T05:37:03;9.43;;;4.25;;
64469;SDS011;50854;48.538;14.352;2023-05-14T05:38:04;5.30;;;4.28;;
64469;SDS011;50854;48.538;14.352;2023-05-14T05:39:05;7.63;;;4.77;;
64469;SDS011;50854;48.538;14.352;2023-05-14T05:40:05;6.20;;;4.30;;
64469;SDS011;50854;48.538;14.352;2023-05-14T05:41:06;5.93;;;4.55;;
64469;SDS011;50854;48.538;14.352;2023-05-14T05:42:06;5.30;;;4.53;;
64469;SDS011;50854;48.538;14.352;2023-05-14T05:43:07;9.27;;;4.47;;
64469;SDS011;50854;48.538;14.352;2023-05-14T05:44:07;5.50;;;4.40;;
64469;SDS011;50854;48.538;14.352;2023-05-14T05:45:07;6.70;;;4.63;;
64469;SDS011;50854;48.538;14.352;2023-05-14T05:46:08;6.20;;;4.60;;
64469;SDS011;50854;48.538;14.352;2023-05-14T05:47:08;5.63;;;4.50;;
64469;SDS011;50854;48.538;14.352;2023-05-14T05:48:08;9.90;;;4.47;;
64469;SDS011;50854;48.538;14.352;2023-05-14T05:49:08;6.03;;;4.70;;
64469;SDS011;50854;48.538;14.352;2023-05-14T05:50:09;6.30;;;4.60;;
64469;SDS011;50854;48.538;14.352;2023-05-14T05:51:10;5.50;;;4.45;;
64469;SDS011;50854;48.538;14.352;2023-05-14T05:52:10;7.45;;;4.55;;
64469;SDS011;50854;48.538;14.352;2023-05-14T05:53:10;6.27;;;4.50;;
64469;SDS011;50854;48.538;14.352;2023-05-14T05:54:11;8.57;;;4.90;;
64469;SDS011;50854;48.538;14.352;2023-05-14T05:55:11;5.90;;;4.30;;
64469;SDS011;50854;48.538;14.352;2023-05-14T05:56:11;6.00;;;4.00;;
64469;SDS011;50854;48.538;14.352;2023-05-14T05:57:12;5.97;;;4.20;;
64469;SDS011;50854;48.538;14.352;2023-05-14T05:58:12;6.05;;;4.40;;
64469;SDS011;50854;48.538;14.352;2023-05-14T05:59:14;6.70;;;5.30;;
64469;SDS011;50854;48.538;14.352;2023-05-14T06:00:15;5.57;;;4.27;;
64469;SDS011;50854;48.538;14.352;2023-05-14T06:01:15;7.00;;;4.45;;
64469;SDS011;50854;48.538;14.352;2023-05-14T06:02:16;6.90;;;4.43;;
64469;SDS011;50854;48.538;14.352;2023-05-14T06:03:16;7.10;;;4.73;;
64469;SDS011;50854;48.538;14.352;2023-05-14T06:04:16;5.97;;;4.37;;
64469;SDS011;50854;48.538;14.352;2023-05-14T06:05:16;6.27;;;4.77;;
64469;SDS011;50854;48.538;14.352;2023-05-14T06:07:18;7.20;;;4.80;;
64469;SDS011;50854;48.538;14.352;2023-05-14T06:08:18;6.60;;;4.43;;